sensor_id;sensor_type;location;lat;lon;timestamp;P1;durP1;ratioP1;P2;durP2;ratioP2
21729;SDS011;11027;51.030;13.812;2023-04-25T00:02:06;4.15;;;1.77;;
21729;SDS011;11027;51.030;13.812;2023-04-25T00:04:32;4.93;;;1.90;;
21729;SDS011;11027;51.030;13.812;2023-04-25T00:06:58;2.80;;;2.25;;
21729;SDS011;11027;51.030;13.812;2023-04-25T00:09:26;5.78;;;2.17;;
21729;SDS011;11027;51.030;13.812;2023-04-25T00:11:52;3.33;;;2.30;;
21729;SDS011;11027;51.030;13.812;2023-04-25T00:14:17;4.97;;;2.28;;
21729;SDS011;11027;51.030;13.812;2023-04-25T00:16:42;3.47;;;1.95;;
21729;SDS011;11027;51.030;13.812;2023-04-25T00:19:09;3.88;;;2.15;;
21729;SDS011;11027;51.030;13.812;2023-04-25T00:21:34;5.15;;;2.28;;
21729;SDS011;11027;51.030;13.812;2023-04-25T00:24:00;3.60;;;2.40;;
21729;SDS011;11027;51.030;13.812;2023-04-25T00:26:25;4.20;;;2.40;;
21729;SDS011;11027;51.030;13.812;2023-04-25T00:28:51;4.25;;;2.45;;
21729;SDS011;11027;51.030;13.812;2023-04-25T00:31:17;3.55;;;2.00;;
21729;SDS011;11027;51.030;13.812;2023-04-25T00:33:42;3.53;;;2.20;;
21729;SDS011;11027;51.030;13.812;2023-04-25T00:36:07;3.67;;;2.20;;
21729;SDS011;11027;51.030;13.812;2023-04-25T00:38:33;4.68;;;2.17;;
21729;SDS011;11027;51.030;13.812;2023-04-25T00:40:58;3.78;;;2.20;;
21729;SDS011;11027;51.030;13.812;2023-04-25T00:43:25;2.97;;;2.20;;
21729;SDS011;11027;51.030;13.812;2023-04-25T00:45:51;3.20;;;2.00;;
21729;SDS011;11027;51.030;13.812;2023-04-25T00:48:17;2.58;;;2.05;;
21729;SDS011;11027;51.030;13.812;2023-04-25T00:50:46;2.92;;;2.50;;
21729;SDS011;11027;51.030;13.812;2023-04-25T00:53:16;3.25;;;2.40;;
21729;SDS011;11027;51.030;13.812;2023-04-25T00:55:41;3.72;;;2.30;;
21729;SDS011;11027;51.030;13.812;2023-04-25T00:58:07;3.60;;;2.72;;
21729;SDS011;11027;51.030;13.812;2023-04-25T01:00:32;3.50;;;2.65;;
21729;SDS011;11027;51.030;13.812;2023-04-25T01:02:57;6.75;;;2.60;;
21729;SDS011;11027;51.030;13.812;2023-04-25T01:05:23;5.20;;;2.90;;
21729;SDS011;11027;51.030;13.812;2023-04-25T01:07:48;4.45;;;2.60;;
21729;SDS011;11027;51.030;13.812;2023-04-25T01:10:14;3.72;;;2.22;;
21729;SDS011;11027;51.030;13.812;2023-04-25T01:12:40;4.20;;;2.63;;
21729;SDS011;11027;51.030;13.812;2023-04-25T01:15:06;6.32;;;3.00;;
21729;SDS011;11027;51.030;13.812;2023-04-25T01:17:31;5.40;;;3.30;;
21729;SDS011;11027;51.030;13.812;2023-04-25T01:19:58;5.57;;;3.15;;
21729;SDS011;11027;51.030;13.812;2023-04-25T01:22:24;6.72;;;2.97;;
21729;SDS011;11027;51.030;13.812;2023-04-25T01:24:49;4.38;;;3.00;;
21729;SDS011;11027;51.030;13.812;2023-04-25T01:27:15;7.18;;;3.15;;
21729;SDS011;11027;51.030;13.812;2023-04-25T01:29:40;5.32;;;3.13;;
21729;SDS011;11027;51.030;13.812;2023-04-25T01:32:06;9.40;;;3.20;;
21729;SDS011;11027;51.030;13.812;2023-04-25T01:34:32;4.10;;;2.80;;
21729;SDS011;11027;51.030;13.812;2023-04-25T01:36:58;9.40;;;3.22;;
21729;SDS011;11027;51.030;13.812;2023-04-25T01:39:24;5.03;;;3.25;;
21729;SDS011;11027;51.030;13.812;2023-04-25T01:41:50;7.07;;;3.20;;
21729;SDS011;11027;51.030;13.812;2023-04-25T01:44:15;3.80;;;2.83;;
21729;SDS011;11027;51.030;13.812;2023-04-25T01:46:41;6.38;;;3.40;;
21729;SDS011;11027;51.030;13.812;2023-04-25T01:49:06;6.35;;;3.38;;
21729;SDS011;11027;51.030;13.812;2023-04-25T01:51:31;5.38;;;3.17;;
21729;SDS011;11027;51.030;13.812;2023-04-25T01:53:57;10.30;;;3.38;;
21729;SDS011;11027;51.030;13.812;2023-04-25T01:56:23;8.00;;;3.20;;
21729;SDS011;11027;51.030;13.812;2023-04-25T01:58:48;3.70;;;2.70;;
21729;SDS011;11027;51.030;13.812;2023-04-25T02:01:14;5.82;;;3.03;;
21729;SDS011;11027;51.030;13.812;2023-04-25T02:03:39;7.00;;;3.28;;
21729;SDS011;11027;51.030;13.812;2023-04-25T02:06:05;4.25;;;3.00;;
21729;SDS011;11027;51.030;13.812;2023-04-25T02:08:30;4.68;;;3.25;;
21729;SDS011;11027;51.030;13.812;2023-04-25T02:10:56;6.05;;;3.22;;
21729;SDS011;11027;51.030;13.812;2023-04-25T02:13:21;3.53;;;3.13;;
21729;SDS011;11027;51.030;13.812;2023-04-25T02:15:46;4.70;;;3.00;;
21729;SDS011;11027;51.030;13.812;2023-04-25T02:18:12;4.30;;;3.00;;
21729;SDS011;11027;51.030;13.812;2023-04-25T02:20:37;5.07;;;3.15;;
21729;SDS011;11027;51.030;13.812;2023-04-25T02:23:02;3.85;;;2.75;;
21729;SDS011;11027;51.030;13.812;2023-04-25T02:25:28;6.13;;;3.05;;
21729;SDS011;11027;51.030;13.812;2023-04-25T02:27:54;3.90;;;2.58;;
21729;SDS011;11027;51.030;13.812;2023-04-25T02:30:19;5.32;;;2.80;;
21729;SDS011;11027;51.030;13.812;2023-04-25T02:32:45;5.30;;;3.08;;
21729;SDS011;11027;51.030;13.812;2023-04-25T02:35:10;6.78;;;3.00;;
21729;SDS011;11027;51.030;13.812;2023-04-25T02:37:36;5.30;;;2.97;;
21729;SDS011;11027;51.030;13.812;2023-04-25T02:40:03;4.38;;;2.90;;
21729;SDS011;11027;51.030;13.812;2023-04-25T02:42:29;3.75;;;2.72;;
21729;SDS011;11027;51.030;13.812;2023-04-25T02:44:54;9.90;;;3.45;;
21729;SDS011;11027;51.030;13.812;2023-04-25T02:47:20;6.53;;;2.88;;
21729;SDS011;11027;51.030;13.812;2023-04-25T02:49:45;5.40;;;2.95;;
21729;SDS011;11027;51.030;13.812;2023-04-25T02:52:11;10.13;;;3.35;;
21729;SDS011;11027;51.030;13.812;2023-04-25T02:54:36;4.60;;;3.10;;
21729;SDS011;11027;51.030;13.812;2023-04-25T02:57:01;5.13;;;2.97;;
21729;SDS011;11027;51.030;13.812;2023-04-25T02:59:27;6.20;;;3.20;;
21729;SDS011;11027;51.030;13.812;2023-04-25T03:01:52;5.78;;;3.00;;
21729;SDS011;11027;51.030;13.812;2023-04-25T03:04:18;4.28;;;3.30;;
21729;SDS011;11027;51.030;13.812;2023-04-25T03:06:44;4.13;;;2.85;;
21729;SDS011;11027;51.030;13.812;2023-04-25T03:09:09;6.35;;;3.53;;
21729;SDS011;11027;51.030;13.812;2023-04-25T03:11:35;7.13;;;3.65;;
21729;SDS011;11027;51.030;13.812;2023-04-25T03:14:00;4.55;;;3.67;;
21729;SDS011;11027;51.030;13.812;2023-04-25T03:16:25;6.95;;;3.72;;
21729;SDS011;11027;51.030;13.812;2023-04-25T03:18:50;6.65;;;3.45;;
21729;SDS011;11027;51.030;13.812;2023-04-25T03:21:16;5.85;;;4.00;;
21729;SDS011;11027;51.030;13.812;2023-04-25T03:23:41;5.35;;;3.40;;
21729;SDS011;11027;51.030;13.812;2023-04-25T03:26:07;8.60;;;3.70;;
21729;SDS011;11027;51.030;13.812;2023-04-25T03:28:32;8.70;;;3.85;;
21729;SDS011;11027;51.030;13.812;2023-04-25T03:30:57;6.55;;;3.85;;
21729;SDS011;11027;51.030;13.812;2023-04-25T03:33:22;6.47;;;3.90;;
21729;SDS011;11027;51.030;13.812;2023-04-25T03:35:48;6.25;;;3.75;;
21729;SDS011;11027;51.030;13.812;2023-04-25T03:38:14;6.93;;;4.13;;
21729;SDS011;11027;51.030;13.812;2023-04-25T03:40:40;9.90;;;4.45;;
21729;SDS011;11027;51.030;13.812;2023-04-25T03:43:05;6.35;;;4.47;;
21729;SDS011;11027;51.030;13.812;2023-04-25T03:45:31;7.50;;;4.45;;
21729;SDS011;11027;51.030;13.812;2023-04-25T03:47:56;6.28;;;4.22;;
21729;SDS011;11027;51.030;13.812;2023-04-25T03:50:22;6.10;;;4.38;;
21729;SDS011;11027;51.030;13.812;2023-04-25T03:52:47;9.23;;;4.65;;
21729;SDS011;11027;51.030;13.812;2023-04-25T03:55:12;7.55;;;4.45;;
21729;SDS011;11027;51.030;13.812;2023-04-25T03:57:37;7.00;;;4.80;;
21729;SDS011;11027;51.030;13.812;2023-04-25T04:00:03;6.22;;;4.57;;
21729;SDS011;11027;51.030;13.812;2023-04-25T04:02:29;11.00;;;5.22;;
21729;SDS011;11027;51.030;13.812;2023-04-25T04:04:54;7.85;;;4.88;;
21729;SDS011;11027;51.030;13.812;2023-04-25T04:07:21;9.65;;;4.80;;
21729;SDS011;11027;51.030;13.812;2023-04-25T04:09:46;6.88;;;4.72;;
21729;SDS011;11027;51.030;13.812;2023-04-25T04:12:12;9.23;;;4.80;;
21729;SDS011;11027;51.030;13.812;2023-04-25T04:14:37;12.27;;;4.85;;
21729;SDS011;11027;51.030;13.812;2023-04-25T04:17:02;6.80;;;4.38;;
21729;SDS011;11027;51.030;13.812;2023-04-25T04:19:28;6.22;;;4.30;;
21729;SDS011;11027;51.030;13.812;2023-04-25T04:21:53;9.60;;;5.03;;
21729;SDS011;11027;51.030;13.812;2023-04-25T04:24:18;10.48;;;4.70;;
21729;SDS011;11027;51.030;13.812;2023-04-25T04:26:43;7.13;;;5.18;;
21729;SDS011;11027;51.030;13.812;2023-04-25T04:29:09;7.82;;;5.05;;
21729;SDS011;11027;51.030;13.812;2023-04-25T04:31:35;8.30;;;4.93;;
21729;SDS011;11027;51.030;13.812;2023-04-25T04:34:00;12.07;;;4.93;;
21729;SDS011;11027;51.030;13.812;2023-04-25T04:36:26;6.45;;;5.15;;
21729;SDS011;11027;51.030;13.812;2023-04-25T04:38:52;8.15;;;5.03;;
21729;SDS011;11027;51.030;13.812;2023-04-25T04:41:17;7.13;;;5.00;;
21729;SDS011;11027;51.030;13.812;2023-04-25T04:43:44;10.55;;;5.32;;
21729;SDS011;11027;51.030;13.812;2023-04-25T04:46:09;8.55;;;5.10;;
21729;SDS011;11027;51.030;13.812;2023-04-25T04:48:35;9.52;;;5.03;;
21729;SDS011;11027;51.030;13.812;2023-04-25T04:51:00;10.70;;;4.78;;
21729;SDS011;11027;51.030;13.812;2023-04-25T04:53:26;10.93;;;5.38;;
21729;SDS011;11027;51.030;13.812;2023-04-25T04:55:52;8.68;;;5.10;;
21729;SDS011;11027;51.030;13.812;2023-04-25T04:58:17;10.50;;;5.20;;
21729;SDS011;11027;51.030;13.812;2023-04-25T05:00:42;10.20;;;5.70;;
21729;SDS011;11027;51.030;13.812;2023-04-25T05:03:08;9.73;;;5.43;;
21729;SDS011;11027;51.030;13.812;2023-04-25T05:05:33;13.60;;;5.90;;
21729;SDS011;11027;51.030;13.812;2023-04-25T05:07:58;8.10;;;5.07;;
21729;SDS011;11027;51.030;13.812;2023-04-25T05:10:23;9.20;;;5.25;;
21729;SDS011;11027;51.030;13.812;2023-04-25T05:12:49;8.88;;;5.65;;
21729;SDS011;11027;51.030;13.812;2023-04-25T05:15:14;8.93;;;5.40;;
21729;SDS011;11027;51.030;13.812;2023-04-25T05:17:39;11.75;;;5.28;;
21729;SDS011;11027;51.030;13.812;2023-04-25T05:20:08;5.75;;;4.63;;
21729;SDS011;11027;51.030;13.812;2023-04-25T05:22:36;10.27;;;4.45;;
21729;SDS011;11027;51.030;13.812;2023-04-25T05:25:02;9.80;;;4.60;;
21729;SDS011;11027;51.030;13.812;2023-04-25T05:27:28;6.03;;;4.22;;
21729;SDS011;11027;51.030;13.812;2023-04-25T05:29:53;7.20;;;4.05;;
21729;SDS011;11027;51.030;13.812;2023-04-25T05:32:19;7.30;;;3.92;;
21729;SDS011;11027;51.030;13.812;2023-04-25T05:34:44;6.65;;;4.35;;
21729;SDS011;11027;51.030;13.812;2023-04-25T05:37:09;10.20;;;4.60;;
21729;SDS011;11027;51.030;13.812;2023-04-25T05:39:35;7.82;;;4.30;;
21729;SDS011;11027;51.030;13.812;2023-04-25T05:42:00;7.97;;;4.00;;
21729;SDS011;11027;51.030;13.812;2023-04-25T05:44:26;6.93;;;4.10;;
21729;SDS011;11027;51.030;13.812;2023-04-25T05:46:52;7.93;;;3.72;;
21729;SDS011;11027;51.030;13.812;2023-04-25T05:49:17;8.00;;;4.18;;
21729;SDS011;11027;51.030;13.812;2023-04-25T05:51:42;6.10;;;3.90;;
21729;SDS011;11027;51.030;13.812;2023-04-25T05:54:07;8.45;;;3.90;;
21729;SDS011;11027;51.030;13.812;2023-04-25T05:56:33;8.23;;;3.83;;
21729;SDS011;11027;51.030;13.812;2023-04-25T05:58:58;6.78;;;3.90;;
21729;SDS011;11027;51.030;13.812;2023-04-25T06:01:23;11.15;;;4.28;;
21729;SDS011;11027;51.030;13.812;2023-04-25T06:03:49;8.75;;;4.18;;
21729;SDS011;11027;51.030;13.812;2023-04-25T06:06:14;6.38;;;4.20;;
21729;SDS011;11027;51.030;13.812;2023-04-25T06:08:40;13.02;;;4.40;;
21729;SDS011;11027;51.030;13.812;2023-04-25T06:11:06;9.82;;;4.57;;
21729;SDS011;11027;51.030;13.812;2023-04-25T06:13:31;9.23;;;4.13;;
21729;SDS011;11027;51.030;13.812;2023-04-25T06:15:56;10.80;;;4.75;;
21729;SDS011;11027;51.030;13.812;2023-04-25T06:18:22;7.72;;;4.32;;
21729;SDS011;11027;51.030;13.812;2023-04-25T06:20:47;9.23;;;5.10;;
21729;SDS011;11027;51.030;13.812;2023-04-25T06:23:12;9.43;;;4.78;;
21729;SDS011;11027;51.030;13.812;2023-04-25T06:25:37;7.32;;;4.55;;
21729;SDS011;11027;51.030;13.812;2023-04-25T06:28:03;9.85;;;4.53;;
21729;SDS011;11027;51.030;13.812;2023-04-25T06:30:28;7.07;;;4.90;;
21729;SDS011;11027;51.030;13.812;2023-04-25T06:32:53;13.32;;;5.47;;
21729;SDS011;11027;51.030;13.812;2023-04-25T06:35:19;9.23;;;4.80;;
21729;SDS011;11027;51.030;13.812;2023-04-25T06:37:44;8.13;;;4.80;;
21729;SDS011;11027;51.030;13.812;2023-04-25T06:40:10;7.22;;;4.80;;
21729;SDS011;11027;51.030;13.812;2023-04-25T06:42:35;7.20;;;4.30;;
21729;SDS011;11027;51.030;13.812;2023-04-25T06:45:01;8.90;;;4.78;;
21729;SDS011;11027;51.030;13.812;2023-04-25T06:47:26;11.32;;;5.00;;
21729;SDS011;11027;51.030;13.812;2023-04-25T06:49:51;9.27;;;5.05;;
21729;SDS011;11027;51.030;13.812;2023-04-25T06:52:16;10.02;;;4.75;;
21729;SDS011;11027;51.030;13.812;2023-04-25T06:54:42;11.95;;;5.43;;
21729;SDS011;11027;51.030;13.812;2023-04-25T06:57:08;12.25;;;4.78;;
21729;SDS011;11027;51.030;13.812;2023-04-25T06:59:33;7.82;;;4.57;;
21729;SDS011;11027;51.030;13.812;2023-04-25T07:01:58;10.02;;;5.47;;
21729;SDS011;11027;51.030;13.812;2023-04-25T07:04:24;10.98;;;5.00;;
21729;SDS011;11027;51.030;13.812;2023-04-25T07:06:49;10.68;;;5.28;;
21729;SDS011;11027;51.030;13.812;2023-04-25T07:09:14;5.68;;;4.25;;
21729;SDS011;11027;51.030;13.812;2023-04-25T07:11:39;7.82;;;4.72;;
21729;SDS011;11027;51.030;13.812;2023-04-25T07:14:05;9.32;;;4.88;;
21729;SDS011;11027;51.030;13.812;2023-04-25T07:16:30;8.23;;;4.88;;
21729;SDS011;11027;51.030;13.812;2023-04-25T07:18:55;9.98;;;5.70;;
21729;SDS011;11027;51.030;13.812;2023-04-25T07:21:20;12.65;;;5.60;;
21729;SDS011;11027;51.030;13.812;2023-04-25T07:23:46;8.48;;;4.90;;
21729;SDS011;11027;51.030;13.812;2023-04-25T07:26:11;16.05;;;5.10;;
21729;SDS011;11027;51.030;13.812;2023-04-25T07:28:36;10.05;;;4.75;;
21729;SDS011;11027;51.030;13.812;2023-04-25T07:31:02;8.23;;;4.40;;
21729;SDS011;11027;51.030;13.812;2023-04-25T07:33:27;10.38;;;4.63;;
21729;SDS011;11027;51.030;13.812;2023-04-25T07:35:53;6.47;;;3.90;;
21729;SDS011;11027;51.030;13.812;2023-04-25T07:38:18;6.72;;;3.80;;
21729;SDS011;11027;51.030;13.812;2023-04-25T07:40:43;10.30;;;3.90;;
21729;SDS011;11027;51.030;13.812;2023-04-25T07:43:09;8.23;;;3.90;;
21729;SDS011;11027;51.030;13.812;2023-04-25T07:45:34;8.68;;;3.90;;
21729;SDS011;11027;51.030;13.812;2023-04-25T07:47:59;5.68;;;4.03;;
21729;SDS011;11027;51.030;13.812;2023-04-25T07:50:24;7.00;;;3.92;;
21729;SDS011;11027;51.030;13.812;2023-04-25T07:52:50;6.32;;;3.45;;
21729;SDS011;11027;51.030;13.812;2023-04-25T07:55:15;7.00;;;3.88;;
21729;SDS011;11027;51.030;13.812;2023-04-25T07:57:41;6.18;;;4.20;;
21729;SDS011;11027;51.030;13.812;2023-04-25T08:00:06;5.32;;;3.70;;
21729;SDS011;11027;51.030;13.812;2023-04-25T08:02:36;5.40;;;3.28;;
21729;SDS011;11027;51.030;13.812;2023-04-25T08:05:01;6.20;;;3.10;;
21729;SDS011;11027;51.030;13.812;2023-04-25T08:07:27;8.10;;;3.40;;
21729;SDS011;11027;51.030;13.812;2023-04-25T08:09:52;7.80;;;3.13;;
21729;SDS011;11027;51.030;13.812;2023-04-25T08:12:18;8.88;;;3.25;;
21729;SDS011;11027;51.030;13.812;2023-04-25T08:14:44;5.20;;;2.97;;
21729;SDS011;11027;51.030;13.812;2023-04-25T08:17:09;8.38;;;3.35;;
21729;SDS011;11027;51.030;13.812;2023-04-25T08:19:34;7.95;;;3.35;;
21729;SDS011;11027;51.030;13.812;2023-04-25T08:22:00;7.18;;;2.38;;
21729;SDS011;11027;51.030;13.812;2023-04-25T08:24:25;3.83;;;2.50;;
21729;SDS011;11027;51.030;13.812;2023-04-25T08:26:51;6.95;;;2.60;;
21729;SDS011;11027;51.030;13.812;2023-04-25T08:29:16;5.70;;;2.80;;
21729;SDS011;11027;51.030;13.812;2023-04-25T08:31:41;5.43;;;3.03;;
21729;SDS011;11027;51.030;13.812;2023-04-25T08:34:07;6.07;;;2.90;;
21729;SDS011;11027;51.030;13.812;2023-04-25T08:36:32;3.22;;;2.30;;
21729;SDS011;11027;51.030;13.812;2023-04-25T08:38:57;4.28;;;2.30;;
21729;SDS011;11027;51.030;13.812;2023-04-25T08:41:23;7.13;;;2.60;;
21729;SDS011;11027;51.030;13.812;2023-04-25T08:43:50;5.82;;;2.50;;
21729;SDS011;11027;51.030;13.812;2023-04-25T08:46:19;3.88;;;2.17;;
21729;SDS011;11027;51.030;13.812;2023-04-25T08:48:45;3.78;;;2.42;;
21729;SDS011;11027;51.030;13.812;2023-04-25T08:51:15;4.10;;;2.30;;
21729;SDS011;11027;51.030;13.812;2023-04-25T08:53:46;5.07;;;2.33;;
21729;SDS011;11027;51.030;13.812;2023-04-25T08:56:15;6.80;;;2.83;;
21729;SDS011;11027;51.030;13.812;2023-04-25T08:58:43;4.28;;;2.40;;
21729;SDS011;11027;51.030;13.812;2023-04-25T09:01:10;5.95;;;3.28;;
21729;SDS011;11027;51.030;13.812;2023-04-25T09:03:36;5.28;;;2.60;;
21729;SDS011;11027;51.030;13.812;2023-04-25T09:06:01;5.53;;;2.60;;
21729;SDS011;11027;51.030;13.812;2023-04-25T09:08:27;6.18;;;2.70;;
21729;SDS011;11027;51.030;13.812;2023-04-25T09:10:52;5.47;;;2.88;;
21729;SDS011;11027;51.030;13.812;2023-04-25T09:13:23;6.72;;;3.05;;
21729;SDS011;11027;51.030;13.812;2023-04-25T09:15:51;5.00;;;3.00;;
21729;SDS011;11027;51.030;13.812;2023-04-25T09:18:27;4.95;;;2.60;;
21729;SDS011;11027;51.030;13.812;2023-04-25T09:20:54;7.38;;;2.83;;
21729;SDS011;11027;51.030;13.812;2023-04-25T09:23:21;9.93;;;3.38;;
21729;SDS011;11027;51.030;13.812;2023-04-25T09:25:48;5.70;;;3.22;;
21729;SDS011;11027;51.030;13.812;2023-04-25T09:28:15;4.53;;;3.10;;
21729;SDS011;11027;51.030;13.812;2023-04-25T09:30:40;5.60;;;3.10;;
21729;SDS011;11027;51.030;13.812;2023-04-25T09:33:10;5.38;;;3.05;;
21729;SDS011;11027;51.030;13.812;2023-04-25T09:35:43;6.38;;;3.40;;
21729;SDS011;11027;51.030;13.812;2023-04-25T09:38:11;7.85;;;3.88;;
21729;SDS011;11027;51.030;13.812;2023-04-25T09:40:40;4.60;;;3.10;;
21729;SDS011;11027;51.030;13.812;2023-04-25T09:43:18;7.95;;;2.60;;
21729;SDS011;11027;51.030;13.812;2023-04-25T09:45:44;3.53;;;2.28;;
21729;SDS011;11027;51.030;13.812;2023-04-25T09:48:11;6.45;;;3.35;;
21729;SDS011;11027;51.030;13.812;2023-04-25T09:50:37;4.75;;;2.90;;
21729;SDS011;11027;51.030;13.812;2023-04-25T09:53:03;7.40;;;3.60;;
21729;SDS011;11027;51.030;13.812;2023-04-25T09:55:32;4.90;;;3.35;;
21729;SDS011;11027;51.030;13.812;2023-04-25T09:58:00;18.10;;;3.22;;
21729;SDS011;11027;51.030;13.812;2023-04-25T10:00:31;8.13;;;3.53;;
21729;SDS011;11027;51.030;13.812;2023-04-25T10:02:57;5.63;;;3.45;;
21729;SDS011;11027;51.030;13.812;2023-04-25T10:05:25;5.93;;;3.53;;
21729;SDS011;11027;51.030;13.812;2023-04-25T10:07:54;7.47;;;3.80;;
21729;SDS011;11027;51.030;13.812;2023-04-25T10:10:20;5.28;;;3.47;;
21729;SDS011;11027;51.030;13.812;2023-04-25T10:12:50;8.63;;;3.88;;
21729;SDS011;11027;51.030;13.812;2023-04-25T10:15:16;7.32;;;4.13;;
21729;SDS011;11027;51.030;13.812;2023-04-25T10:17:41;7.95;;;4.05;;
21729;SDS011;11027;51.030;13.812;2023-04-25T10:20:07;6.00;;;3.88;;
21729;SDS011;11027;51.030;13.812;2023-04-25T10:22:36;6.30;;;3.45;;
21729;SDS011;11027;51.030;13.812;2023-04-25T10:25:04;4.60;;;3.17;;
21729;SDS011;11027;51.030;13.812;2023-04-25T10:27:31;5.47;;;3.08;;
21729;SDS011;11027;51.030;13.812;2023-04-25T10:30:00;5.40;;;3.15;;
21729;SDS011;11027;51.030;13.812;2023-04-25T10:32:33;6.75;;;3.20;;
21729;SDS011;11027;51.030;13.812;2023-04-25T10:37:43;4.97;;;2.42;;
21729;SDS011;11027;51.030;13.812;2023-04-25T10:40:22;7.43;;;3.30;;
21729;SDS011;11027;51.030;13.812;2023-04-25T10:42:48;6.53;;;3.53;;
21729;SDS011;11027;51.030;13.812;2023-04-25T10:45:13;7.40;;;3.45;;
21729;SDS011;11027;51.030;13.812;2023-04-25T10:47:43;7.22;;;3.70;;
21729;SDS011;11027;51.030;13.812;2023-04-25T10:50:09;4.28;;;2.80;;
21729;SDS011;11027;51.030;13.812;2023-04-25T10:52:35;3.90;;;2.40;;
21729;SDS011;11027;51.030;13.812;2023-04-25T10:55:03;5.32;;;2.55;;
21729;SDS011;11027;51.030;13.812;2023-04-25T10:57:36;4.30;;;2.70;;
21729;SDS011;11027;51.030;13.812;2023-04-25T11:00:09;5.55;;;2.97;;
21729;SDS011;11027;51.030;13.812;2023-04-25T11:02:58;5.07;;;2.78;;
21729;SDS011;11027;51.030;13.812;2023-04-25T11:05:31;7.82;;;3.15;;
21729;SDS011;11027;51.030;13.812;2023-04-25T11:07:58;5.10;;;3.17;;
21729;SDS011;11027;51.030;13.812;2023-04-25T11:10:25;7.78;;;3.40;;
21729;SDS011;11027;51.030;13.812;2023-04-25T11:12:51;6.35;;;3.83;;
21729;SDS011;11027;51.030;13.812;2023-04-25T11:15:16;6.80;;;3.50;;
21729;SDS011;11027;51.030;13.812;2023-04-25T11:17:41;13.05;;;4.30;;
21729;SDS011;11027;51.030;13.812;2023-04-25T11:20:08;7.70;;;4.40;;
21729;SDS011;11027;51.030;13.812;2023-04-25T11:22:36;8.05;;;4.65;;
21729;SDS011;11027;51.030;13.812;2023-04-25T11:25:05;6.95;;;4.10;;
21729;SDS011;11027;51.030;13.812;2023-04-25T11:27:31;7.40;;;4.57;;
21729;SDS011;11027;51.030;13.812;2023-04-25T11:29:57;13.63;;;5.50;;
21729;SDS011;11027;51.030;13.812;2023-04-25T11:32:22;10.63;;;4.60;;
21729;SDS011;11027;51.030;13.812;2023-04-25T11:34:48;7.75;;;4.25;;
21729;SDS011;11027;51.030;13.812;2023-04-25T11:37:13;11.25;;;3.67;;
21729;SDS011;11027;51.030;13.812;2023-04-25T11:39:42;10.13;;;4.07;;
21729;SDS011;11027;51.030;13.812;2023-04-25T11:42:08;7.25;;;2.83;;
21729;SDS011;11027;51.030;13.812;2023-04-25T11:44:34;5.63;;;2.35;;
21729;SDS011;11027;51.030;13.812;2023-04-25T11:46:59;5.32;;;2.47;;
21729;SDS011;11027;51.030;13.812;2023-04-25T11:49:25;6.43;;;2.40;;
21729;SDS011;11027;51.030;13.812;2023-04-25T11:51:55;5.82;;;2.00;;
21729;SDS011;11027;51.030;13.812;2023-04-25T11:54:20;6.32;;;1.83;;
21729;SDS011;11027;51.030;13.812;2023-04-25T11:56:47;4.13;;;1.63;;
21729;SDS011;11027;51.030;13.812;2023-04-25T11:59:13;6.65;;;1.70;;
21729;SDS011;11027;51.030;13.812;2023-04-25T12:01:39;2.50;;;1.42;;
21729;SDS011;11027;51.030;13.812;2023-04-25T12:04:12;7.88;;;1.48;;
21729;SDS011;11027;51.030;13.812;2023-04-25T12:06:39;9.80;;;1.50;;
21729;SDS011;11027;51.030;13.812;2023-04-25T12:09:07;3.83;;;1.67;;
21729;SDS011;11027;51.030;13.812;2023-04-25T12:11:43;4.95;;;1.58;;
21729;SDS011;11027;51.030;13.812;2023-04-25T12:14:20;9.05;;;1.70;;
21729;SDS011;11027;51.030;13.812;2023-04-25T12:16:50;5.47;;;1.83;;
21729;SDS011;11027;51.030;13.812;2023-04-25T12:19:19;5.78;;;1.77;;
21729;SDS011;11027;51.030;13.812;2023-04-25T12:21:45;12.05;;;2.35;;
21729;SDS011;11027;51.030;13.812;2023-04-25T12:24:12;6.13;;;2.20;;
21729;SDS011;11027;51.030;13.812;2023-04-25T12:26:59;5.88;;;2.10;;
21729;SDS011;11027;51.030;13.812;2023-04-25T12:29:25;7.47;;;2.20;;
21729;SDS011;11027;51.030;13.812;2023-04-25T12:31:51;7.15;;;2.17;;
21729;SDS011;11027;51.030;13.812;2023-04-25T12:34:20;10.65;;;2.55;;
21729;SDS011;11027;51.030;13.812;2023-04-25T12:36:46;12.48;;;2.83;;
21729;SDS011;11027;51.030;13.812;2023-04-25T12:39:19;10.23;;;2.30;;
21729;SDS011;11027;51.030;13.812;2023-04-25T12:41:49;10.07;;;2.63;;
21729;SDS011;11027;51.030;13.812;2023-04-25T12:44:15;11.32;;;2.88;;
21729;SDS011;11027;51.030;13.812;2023-04-25T12:46:41;9.88;;;2.75;;
21729;SDS011;11027;51.030;13.812;2023-04-25T12:49:07;11.70;;;3.20;;
21729;SDS011;11027;51.030;13.812;2023-04-25T12:51:33;12.05;;;3.30;;
21729;SDS011;11027;51.030;13.812;2023-04-25T12:53:59;8.95;;;2.38;;
21729;SDS011;11027;51.030;13.812;2023-04-25T12:56:28;9.70;;;2.65;;
21729;SDS011;11027;51.030;13.812;2023-04-25T12:58:54;9.48;;;2.97;;
21729;SDS011;11027;51.030;13.812;2023-04-25T13:01:20;10.30;;;2.50;;
21729;SDS011;11027;51.030;13.812;2023-04-25T13:03:46;14.00;;;2.72;;
21729;SDS011;11027;51.030;13.812;2023-04-25T13:06:12;10.43;;;2.58;;
21729;SDS011;11027;51.030;13.812;2023-04-25T13:08:38;15.10;;;3.00;;
21729;SDS011;11027;51.030;13.812;2023-04-25T13:11:04;11.25;;;2.78;;
21729;SDS011;11027;51.030;13.812;2023-04-25T13:13:30;8.60;;;2.67;;
21729;SDS011;11027;51.030;13.812;2023-04-25T13:15:56;13.23;;;3.40;;
21729;SDS011;11027;51.030;13.812;2023-04-25T13:18:21;8.25;;;2.58;;
21729;SDS011;11027;51.030;13.812;2023-04-25T13:20:51;12.77;;;3.10;;
21729;SDS011;11027;51.030;13.812;2023-04-25T13:23:16;13.50;;;3.50;;
21729;SDS011;11027;51.030;13.812;2023-04-25T13:25:41;10.27;;;3.67;;
21729;SDS011;11027;51.030;13.812;2023-04-25T13:28:06;12.32;;;3.47;;
21729;SDS011;11027;51.030;13.812;2023-04-25T13:30:32;12.43;;;3.25;;
21729;SDS011;11027;51.030;13.812;2023-04-25T13:32:58;12.80;;;3.58;;
21729;SDS011;11027;51.030;13.812;2023-04-25T13:35:28;17.35;;;3.72;;
21729;SDS011;11027;51.030;13.812;2023-04-25T13:37:54;16.73;;;4.00;;
21729;SDS011;11027;51.030;13.812;2023-04-25T13:40:19;10.82;;;4.10;;
21729;SDS011;11027;51.030;13.812;2023-04-25T13:42:45;23.40;;;4.57;;
21729;SDS011;11027;51.030;13.812;2023-04-25T13:45:10;13.20;;;4.30;;
21729;SDS011;11027;51.030;13.812;2023-04-25T13:47:35;16.30;;;4.82;;
21729;SDS011;11027;51.030;13.812;2023-04-25T13:50:01;13.82;;;4.13;;
21729;SDS011;11027;51.030;13.812;2023-04-25T13:52:28;19.10;;;3.80;;
21729;SDS011;11027;51.030;13.812;2023-04-25T13:54:53;18.60;;;3.30;;
21729;SDS011;11027;51.030;13.812;2023-04-25T13:57:18;12.40;;;3.42;;
21729;SDS011;11027;51.030;13.812;2023-04-25T13:59:44;12.95;;;3.55;;
21729;SDS011;11027;51.030;13.812;2023-04-25T14:02:11;11.60;;;3.42;;
21729;SDS011;11027;51.030;13.812;2023-04-25T14:04:36;11.23;;;3.33;;
21729;SDS011;11027;51.030;13.812;2023-04-25T14:07:02;15.93;;;3.55;;
21729;SDS011;11027;51.030;13.812;2023-04-25T14:09:28;13.80;;;3.22;;
21729;SDS011;11027;51.030;13.812;2023-04-25T14:11:53;12.82;;;3.05;;
21729;SDS011;11027;51.030;13.812;2023-04-25T14:14:19;17.63;;;3.60;;
21729;SDS011;11027;51.030;13.812;2023-04-25T14:16:45;10.10;;;3.10;;
21729;SDS011;11027;51.030;13.812;2023-04-25T14:19:13;16.48;;;3.33;;
21729;SDS011;11027;51.030;13.812;2023-04-25T14:21:38;16.40;;;3.15;;
21729;SDS011;11027;51.030;13.812;2023-04-25T14:24:04;13.88;;;3.28;;
21729;SDS011;11027;51.030;13.812;2023-04-25T14:26:29;12.15;;;3.50;;
21729;SDS011;11027;51.030;13.812;2023-04-25T14:28:55;9.82;;;3.08;;